Alcalde, New Mexico
Current Conditions -  °F | °C
As of 9:35 PM on Saturday 22 Nov 2014 (Local Time) from KLAM Reporting Station
Broken Clouds Broken Clouds  
Wind Chill: 43°   Ceiling: 6500
Heat Index: 43°   Visibility: 10mi
Dew Point: 15°   Wind: 0mph
Humidity: 32%   Direction: NA
Pressure: 29.9"   Gusts: NA
Location:  36.09°N, 106.06°W
Report Text: KLAM 230435Z AUTO 00000KT 10SM BKN065 06/M09 A2990 RMK AO2 T00621094
Loading
Personal Weather Stations






























Interactive Weather Map New forecast layout! Learn more

10-Day Weather Forecast

Advertisements
Track Severe Weather on mobile